createdAt,value
2019-04-23T00:01:13.300Z,13.40
2019-04-23T00:03:34.370Z,13.40
2019-04-23T00:06:12.083Z,13.30
2019-04-23T00:08:41.538Z,13.30
2019-04-23T00:11:15.731Z,13.30
2019-04-23T00:13:43.889Z,13.20
2019-04-23T00:18:46.427Z,13.10
2019-04-23T00:21:48.315Z,13.10
2019-04-23T00:25:05.711Z,13.10
2019-04-23T00:27:24.036Z,13.10
2019-04-23T00:29:45.938Z,13.00
2019-04-23T00:37:25.951Z,13.00
2019-04-23T00:39:52.823Z,13.00
2019-04-23T00:42:29.625Z,13.00
2019-04-23T00:44:58.648Z,13.00
2019-04-23T00:52:38.904Z,13.00
2019-04-23T00:57:47.040Z,13.00
2019-04-23T02:01:29.535Z,12.40
2019-04-23T02:09:09.613Z,12.10
2019-04-23T02:11:37.284Z,12.10
2019-04-23T02:14:14.836Z,12.00
2019-04-23T02:16:44.046Z,12.00
2019-04-23T02:19:26.721Z,11.90
2019-04-23T02:22:31.445Z,11.80
2019-04-23T02:25:50.813Z,11.70
2019-04-23T02:28:09.169Z,11.70
2019-04-23T02:31:08.192Z,11.70
2019-04-23T02:38:44.329Z,11.50
2019-04-23T02:41:29.767Z,11.40
2019-04-23T02:43:26.541Z,11.40
2019-04-23T02:48:44.232Z,11.50
2019-04-23T02:51:17.541Z,11.50
2019-04-23T02:54:10.155Z,11.50
2019-04-23T02:59:08.045Z,11.50
2019-04-23T03:04:14.826Z,11.60
2019-04-23T03:06:48.125Z,11.60
2019-04-23T03:09:15.254Z,11.60
2019-04-23T03:14:16.861Z,11.50
2019-04-23T03:17:00.378Z,11.50
2019-04-23T03:19:38.223Z,11.50
2019-04-23T03:22:30.527Z,11.40
2019-04-23T03:25:23.487Z,11.30
2019-04-23T03:27:41.925Z,11.30
2019-04-23T03:30:33.414Z,11.20
2019-04-23T03:36:18.407Z,11.20
2019-04-23T03:38:10.533Z,11.20
2019-04-23T03:40:57.178Z,11.20
2019-04-23T03:48:32.410Z,11.10
2019-04-23T03:50:53.012Z,11.10
2019-04-23T03:53:45.086Z,11.00
2019-04-23T03:58:47.357Z,11.10
2019-04-23T04:01:27.523Z,11.10
2019-04-23T04:09:06.100Z,11.00
2019-04-23T04:11:22.853Z,11.00
2019-04-23T04:16:42.941Z,10.90
2019-04-23T04:21:49.525Z,10.80
2019-04-23T04:24:36.968Z,10.90
2019-04-23T04:26:59.615Z,10.90
2019-04-23T04:29:29.463Z,11.00
2019-04-23T04:39:42.834Z,11.00
2019-04-23T04:42:12.051Z,10.90
2019-04-23T04:47:21.544Z,11.00
2019-04-23T04:55:05.380Z,11.00
2019-04-23T05:00:10.517Z,11.00
2019-04-23T05:02:53.167Z,11.10
2019-04-23T05:05:48.601Z,11.10
2019-04-23T05:10:29.752Z,11.10
2019-04-23T05:12:59.756Z,11.20
2019-04-23T05:15:25.110Z,11.20
2019-04-23T05:20:53.515Z,11.20
2019-04-23T05:25:49.671Z,11.30
2019-04-23T05:28:44.206Z,11.40
2019-04-23T05:31:08.603Z,11.40
2019-04-23T05:33:41.551Z,11.40
2019-04-23T05:39:02.130Z,11.50
2019-04-23T05:41:33.852Z,11.50
2019-04-23T05:43:46.646Z,11.50
2019-04-23T05:46:31.840Z,11.60
2019-04-23T05:49:00.155Z,11.70
2019-04-23T05:51:50.767Z,11.70
2019-04-23T05:54:22.702Z,11.80
2019-04-23T05:56:38.239Z,11.90
2019-04-23T05:59:11.611Z,11.90
2019-04-23T06:01:54.213Z,12.00
2019-04-23T06:09:26.475Z,12.20
2019-04-23T06:17:09.713Z,12.50
2019-04-23T06:19:24.605Z,12.70
2019-04-23T06:22:15.219Z,12.80
2019-04-23T06:24:41.417Z,12.90
2019-04-23T06:27:24.360Z,13.00
2019-04-23T06:29:50.101Z,13.10
2019-04-23T06:32:29.434Z,13.20
2019-04-23T06:34:54.610Z,13.30
2019-04-23T06:37:38.567Z,13.50
2019-04-23T06:40:03.149Z,13.60
2019-04-23T06:42:45.443Z,13.70
2019-04-23T06:45:15.058Z,13.80
2019-04-23T06:47:54.078Z,13.90
2019-04-23T06:50:36.579Z,14.10
2019-04-23T06:52:57.305Z,14.20
2019-04-23T06:55:35.592Z,14.30
2019-04-23T06:58:12.342Z,14.50
2019-04-23T07:03:24.671Z,14.70
2019-04-23T07:11:25.866Z,15.20
2019-04-23T07:13:55.018Z,15.30
2019-04-23T07:16:32.496Z,15.40
2019-04-23T07:21:38.488Z,15.70
2019-04-23T07:26:40.765Z,16.00
2019-04-23T07:29:07.457Z,16.00
2019-04-23T07:34:13.801Z,16.10
2019-04-23T07:36:47.430Z,16.20
2019-04-23T07:39:54.543Z,16.30
2019-04-23T07:45:30.943Z,16.40
2019-04-23T07:48:10.954Z,16.50
2019-04-23T07:55:48.497Z,16.80
2019-04-23T08:00:49.204Z,16.90
2019-04-23T08:06:02.762Z,17.20
2019-04-23T08:08:39.730Z,17.40
2019-04-23T08:16:29.420Z,17.80
2019-04-23T08:21:40.296Z,18.10
2019-04-23T08:24:38.090Z,18.40
2019-04-23T08:27:04.176Z,18.70
2019-04-23T08:29:41.056Z,19.00
2019-04-23T08:32:19.502Z,19.20
2019-04-23T08:34:58.641Z,19.30
2019-04-23T08:37:54.319Z,19.30
2019-04-23T08:45:28.530Z,19.30
2019-04-23T08:48:34.586Z,19.50
2019-04-23T08:50:49.032Z,19.60
2019-04-23T08:53:37.411Z,19.70
2019-04-23T08:56:15.117Z,19.70
2019-04-23T09:08:44.375Z,20.10
2019-04-23T09:11:35.765Z,20.00
2019-04-23T09:16:37.810Z,20.20
2019-04-23T09:19:08.823Z,20.20
2019-04-23T09:21:33.199Z,20.30
2019-04-23T09:24:27.672Z,20.10
2019-04-23T09:26:44.140Z,20.00
2019-04-23T09:29:19.096Z,19.90
2019-04-23T09:35:08.542Z,20.70
2019-04-23T09:37:52.672Z,20.80
2019-04-23T09:41:20.105Z,20.80
2019-04-23T09:43:33.227Z,21.00
2019-04-23T09:46:49.591Z,21.30
2019-04-23T09:49:20.538Z,21.60
2019-04-23T09:51:52.526Z,22.10
2019-04-23T09:54:26.624Z,21.80
2019-04-23T09:56:52.058Z,22.30
2019-04-23T09:59:39.454Z,22.70
2019-04-23T10:01:57.313Z,22.60
2019-04-23T10:04:22.179Z,23.00
2019-04-23T10:07:00.154Z,23.10
2019-04-23T10:09:16.726Z,23.20
2019-04-23T10:11:51.059Z,23.40
2019-04-23T10:14:24.126Z,23.10
2019-04-23T10:16:58.033Z,23.30
2019-04-23T10:19:30.855Z,23.80
2019-04-23T10:22:05.040Z,24.20
2019-04-23T10:24:37.186Z,24.40
2019-04-23T10:27:10.015Z,24.70
2019-04-23T10:29:41.769Z,24.30
2019-04-23T10:32:15.769Z,24.90
2019-04-23T10:34:57.800Z,24.90
2019-04-23T10:37:34.274Z,24.80
2019-04-23T10:39:59.231Z,24.90
2019-04-23T10:42:33.936Z,24.70
2019-04-23T10:45:35.180Z,24.70
2019-04-23T10:48:41.477Z,24.80
2019-04-23T10:54:19.594Z,24.40
2019-04-23T10:56:43.335Z,24.90
2019-04-23T10:59:34.929Z,24.50
2019-04-23T11:02:24.573Z,24.00
2019-04-23T11:04:54.328Z,24.30
2019-04-23T11:07:26.947Z,24.20
2019-04-23T11:10:00.219Z,24.20
2019-04-23T11:17:47.927Z,24.80
2019-04-23T11:22:51.698Z,25.40
2019-04-23T11:25:31.625Z,25.80
2019-04-23T11:30:50.070Z,25.20
2019-04-23T11:33:18.510Z,25.40
2019-04-23T11:35:50.709Z,25.50
2019-04-23T11:38:44.037Z,25.70
2019-04-23T11:40:43.599Z,26.00
2019-04-23T11:51:38.782Z,25.70
2019-04-23T11:58:43.207Z,25.70
2019-04-23T12:01:49.221Z,25.80
2019-04-23T12:04:40.697Z,25.70
2019-04-23T12:07:29.812Z,25.70
2019-04-23T12:10:22.185Z,25.20
2019-04-23T12:13:07.510Z,25.40
2019-04-23T12:15:30.464Z,25.60
2019-04-23T12:17:51.247Z,25.80
2019-04-23T12:20:32.698Z,26.10
2019-04-23T12:23:18.195Z,25.90
2019-04-23T12:25:37.911Z,26.10
2019-04-23T12:28:17.979Z,26.20
2019-04-23T12:30:45.174Z,26.40
2019-04-23T12:33:47.083Z,26.30
2019-04-23T12:35:51.992Z,26.00
2019-04-23T12:38:27.357Z,26.40
2019-04-23T12:41:18.843Z,26.30
2019-04-23T12:43:43.529Z,26.50
2019-04-23T12:46:06.327Z,26.40
2019-04-23T12:48:49.888Z,26.30
2019-04-23T12:51:29.918Z,26.30
2019-04-23T12:53:50.178Z,26.40
2019-04-23T12:56:42.232Z,26.50
2019-04-23T12:58:56.307Z,26.70
2019-04-23T13:01:44.315Z,26.80
2019-04-23T13:04:09.657Z,27.00
2019-04-23T13:06:36.800Z,25.70
2019-04-23T13:12:01.556Z,26.00
2019-04-23T13:14:41.748Z,26.30
2019-04-23T13:17:12.619Z,26.50
2019-04-23T13:22:18.068Z,26.30
2019-04-23T13:25:05.314Z,26.20
2019-04-23T13:27:54.249Z,26.40
2019-04-23T13:30:29.893Z,26.60
2019-04-23T13:33:03.022Z,26.90
2019-04-23T13:38:12.499Z,26.60
2019-04-23T13:40:39.471Z,25.70
2019-04-23T13:43:14.923Z,25.90
2019-04-23T13:48:14.665Z,25.90
2019-04-23T13:51:06.700Z,26.40
2019-04-23T13:53:38.434Z,25.90
2019-04-23T13:55:52.556Z,26.00
2019-04-23T13:58:38.798Z,25.90
2019-04-23T14:03:45.232Z,25.70
2019-04-23T14:06:20.860Z,26.00
2019-04-23T14:13:55.589Z,25.70
2019-04-23T14:21:51.545Z,26.00
2019-04-23T14:24:19.881Z,25.90
2019-04-23T14:27:07.325Z,25.90
2019-04-23T14:29:24.749Z,25.80
2019-04-23T14:32:04.352Z,26.00
2019-04-23T14:34:30.469Z,26.20
2019-04-23T14:37:08.556Z,26.20
2019-04-23T14:39:41.023Z,26.50
2019-04-23T14:42:21.466Z,26.40
2019-04-23T14:44:52.423Z,26.20
2019-04-23T14:47:28.232Z,26.20
2019-04-23T14:50:24.665Z,26.40
2019-04-23T14:52:38.148Z,26.50
2019-04-23T14:55:40.596Z,26.30
2019-04-23T14:57:53.471Z,26.70
2019-04-23T15:00:28.743Z,26.90
2019-04-23T15:03:02.975Z,27.00
2019-04-23T15:08:03.901Z,26.70
2019-04-23T15:10:41.577Z,26.80
2019-04-23T15:15:47.866Z,27.10
2019-04-23T15:18:48.547Z,26.40
2019-04-23T15:28:34.177Z,26.90
2019-04-23T15:34:07.589Z,26.40
2019-04-23T15:41:55.972Z,26.50
2019-04-23T15:44:14.826Z,26.60
2019-04-23T15:46:58.173Z,26.70
2019-04-23T15:52:01.070Z,26.30
2019-04-23T15:54:37.566Z,26.30
2019-04-23T15:56:59.509Z,26.40
2019-04-23T15:59:40.861Z,26.50
2019-04-23T16:01:43.404Z,26.60
2019-04-23T16:04:15.354Z,26.00
2019-04-23T16:06:47.836Z,26.00
2019-04-23T16:09:50.888Z,25.70
2019-04-23T16:12:22.806Z,25.70
2019-04-23T16:17:29.092Z,25.70
2019-04-23T16:22:36.606Z,25.50
2019-04-23T16:27:48.984Z,25.60
2019-04-23T16:38:38.992Z,24.80
2019-04-23T16:41:11.466Z,24.80
2019-04-23T16:43:48.717Z,24.60
2019-04-23T16:46:21.587Z,24.50
2019-04-23T16:49:09.033Z,24.50
2019-04-23T16:54:01.126Z,24.40
2019-04-23T17:01:44.542Z,24.00
2019-04-23T17:06:52.054Z,23.90
2019-04-23T17:09:37.169Z,23.80
2019-04-23T17:11:59.129Z,23.70
2019-04-23T17:14:23.214Z,23.60
2019-04-23T17:16:53.395Z,23.50
2019-04-23T17:19:28.225Z,23.40
2019-04-23T17:24:39.906Z,23.30
2019-04-23T17:29:48.925Z,23.10
2019-04-23T17:32:36.595Z,23.10
2019-04-23T17:35:24.133Z,23.10
2019-04-23T17:38:16.604Z,23.20
2019-04-23T17:40:23.069Z,23.00
2019-04-23T17:43:26.998Z,23.00
2019-04-23T17:48:17.246Z,22.60
2019-04-23T17:50:56.851Z,22.60
2019-04-23T17:53:26.839Z,22.50
2019-04-23T17:58:34.330Z,22.20
2019-04-23T18:01:21.902Z,22.10
2019-04-23T18:09:00.509Z,21.70
2019-04-23T18:14:02.585Z,21.70
2019-04-23T18:16:41.228Z,21.80
2019-04-23T18:21:52.000Z,21.70
2019-04-23T18:24:34.460Z,21.50
2019-04-23T18:27:17.346Z,21.40
2019-04-23T18:32:36.038Z,21.40
2019-04-23T18:37:41.478Z,21.10
2019-04-23T18:40:10.393Z,21.10
2019-04-23T18:45:31.682Z,21.10
2019-04-23T18:48:36.608Z,21.00
2019-04-23T18:53:35.214Z,20.90
2019-04-23T18:56:06.571Z,20.80
2019-04-23T18:58:46.897Z,20.70
2019-04-23T19:04:07.120Z,20.60
2019-04-23T19:06:38.136Z,20.50
2019-04-23T19:12:31.398Z,20.40
2019-04-23T19:15:06.141Z,20.40
2019-04-23T19:17:46.428Z,20.30
2019-04-23T19:20:16.291Z,20.20
2019-04-23T19:22:53.099Z,20.10
2019-04-23T19:25:23.115Z,20.10
2019-04-23T19:30:42.528Z,20.00
2019-04-23T19:33:14.311Z,19.90
2019-04-23T19:38:20.604Z,19.80
2019-04-23T19:43:34.408Z,19.70
2019-04-23T19:48:44.434Z,19.60
2019-04-23T19:51:11.401Z,19.60
2019-04-23T19:53:55.243Z,19.60
2019-04-23T19:56:22.038Z,19.50
2019-04-23T19:59:14.094Z,19.40
2019-04-23T20:01:25.769Z,19.40
2019-04-23T20:03:57.644Z,19.30
2019-04-23T20:06:52.112Z,19.20
2019-04-23T20:11:42.678Z,19.00
2019-04-23T20:14:25.215Z,19.00
2019-04-23T20:17:20.278Z,19.00
2019-04-23T20:19:18.812Z,18.90
2019-04-23T20:21:59.666Z,18.90
2019-04-23T20:24:37.288Z,18.90
2019-04-23T20:27:15.524Z,18.90
2019-04-23T20:30:26.032Z,18.80
2019-04-23T20:35:21.538Z,18.80
2019-04-23T20:38:18.766Z,18.70
2019-04-23T20:40:35.268Z,18.60
2019-04-23T20:42:57.136Z,18.60
2019-04-23T20:45:38.978Z,18.60
2019-04-23T20:48:06.958Z,18.50
2019-04-23T20:50:39.771Z,18.50
2019-04-23T20:53:13.664Z,18.40
2019-04-23T20:56:01.516Z,18.40
2019-04-23T20:59:00.210Z,18.40
2019-04-23T21:01:37.054Z,18.40
2019-04-23T21:04:00.379Z,18.40
2019-04-23T21:06:45.886Z,18.30
2019-04-23T21:11:59.180Z,18.30
2019-04-23T21:14:41.101Z,18.20
2019-04-23T21:16:56.763Z,18.20
2019-04-23T21:19:35.671Z,18.20
2019-04-23T21:22:09.963Z,18.20
2019-04-23T21:24:42.447Z,18.20
2019-04-23T21:27:32.616Z,18.20
2019-04-23T21:30:09.123Z,18.20
2019-04-23T21:35:10.710Z,18.20
2019-04-23T21:37:50.062Z,18.20
2019-04-23T21:43:52.759Z,18.20
2019-04-23T21:46:15.863Z,18.20
2019-04-23T21:49:02.121Z,18.20
2019-04-23T21:51:31.207Z,18.20
2019-04-23T21:53:51.767Z,18.20
2019-04-23T21:56:24.002Z,18.10
2019-04-23T21:59:04.335Z,18.10
2019-04-23T22:01:37.122Z,18.10
2019-04-23T22:06:43.319Z,18.00
2019-04-23T22:09:12.429Z,17.90
2019-04-23T22:11:56.994Z,18.00
2019-04-23T22:14:19.370Z,17.90
2019-04-23T22:19:51.873Z,17.80
2019-04-23T22:21:57.458Z,17.70
2019-04-23T22:24:33.025Z,17.70
2019-04-23T22:27:10.132Z,17.70
2019-04-23T22:32:15.192Z,17.70
2019-04-23T22:34:56.690Z,17.60
2019-04-23T22:37:23.578Z,17.60
2019-04-23T22:40:04.740Z,17.50
2019-04-23T22:42:54.367Z,17.50
2019-04-23T22:45:10.685Z,17.50
2019-04-23T22:47:50.931Z,17.50
2019-04-23T22:52:53.935Z,17.50
2019-04-23T23:03:11.639Z,17.40
2019-04-23T23:08:31.342Z,17.40
2019-04-23T23:13:46.524Z,17.40
2019-04-23T23:19:10.969Z,17.40
2019-04-23T23:21:13.419Z,17.40
2019-04-23T23:23:47.811Z,17.40
2019-04-23T23:26:26.755Z,17.40
2019-04-23T23:28:55.395Z,17.30
2019-04-23T23:31:50.461Z,17.30
2019-04-23T23:34:02.600Z,17.30
2019-04-23T23:36:40.442Z,17.30
2019-04-23T23:39:21.146Z,17.30
2019-04-23T23:41:53.412Z,17.20
2019-04-23T23:44:35.124Z,17.20
2019-04-23T23:46:56.267Z,17.20
2019-04-23T23:49:24.385Z,17.20
2019-04-23T23:51:57.853Z,17.10
2019-04-23T23:54:25.215Z,17.10
2019-04-23T23:57:16.596Z,17.00
